Time;durP1;ratioP1;P1;durP2;ratioP2;P2;SDS_P1;SDS_P2;PMS_P1;PMS_P2;Temp;Humidity;BMP_temperature;BMP_pressure;BME280_temperature;BME280_humidity;BME280_pressure;Samples;Min_cycle;Max_cycle;Signal;HPM_P1;HPM_P2
2023/12/24 00:00:06;;;;;;;0.50;0.50;;;;;;;1.56;98.21;98631.75;5073806;28;20066;-69
2023/12/24 00:02:34;;;;;;;0.40;0.40;;;;;;;1.54;98.45;98628.31;5073429;28;20041;-69
2023/12/24 00:05:04;;;;;;;0.60;0.60;;;;;;;1.51;98.16;98630.81;5073729;28;20102;-69
2023/12/24 00:07:33;;;;;;;1.50;1.40;;;;;;;1.50;97.99;98634.13;5072578;28;20116;-67
2023/12/24 00:10:04;;;;;;;0.50;0.50;;;;;;;1.52;98.15;98627.44;5073684;28;20135;-70
2023/12/24 00:12:34;;;;;;;1.50;1.40;;;;;;;1.53;97.85;98635.03;5072544;28;20056;-70
2023/12/24 00:15:03;;;;;;;0.50;0.50;;;;;;;1.56;98.61;98624.19;5072521;28;20044;-69
2023/12/24 00:17:32;;;;;;;0.70;0.70;;;;;;;1.57;97.95;98635.94;5073339;28;20102;-68
2023/12/24 00:20:01;;;;;;;0.50;0.50;;;;;;;1.58;98.44;98633.47;5073593;28;20033;-70
2023/12/24 00:22:31;;;;;;;0.50;0.50;;;;;;;1.57;98.11;98630.91;5073345;28;20045;-68
2023/12/24 00:24:59;;;;;;;0.40;0.40;;;;;;;1.56;97.52;98639.28;5055634;28;20466;-69
2023/12/24 00:27:30;;;;;;;0.40;0.40;;;;;;;1.54;98.03;98650.94;5073220;28;20364;-70
2023/12/24 00:29:59;;;;;;;0.50;0.50;;;;;;;1.48;97.81;98645.81;5072067;28;20053;-69
2023/12/24 00:32:27;;;;;;;0.57;0.57;;;;;;;1.45;97.65;98656.66;5072379;28;20051;-69
2023/12/24 00:34:58;;;;;;;0.55;0.55;;;;;;;1.43;97.73;98654.94;5073165;28;20097;-69
2023/12/24 00:37:27;;;;;;;1.13;1.13;;;;;;;1.37;97.61;98655.66;5072286;28;20033;-70
2023/12/24 00:39:56;;;;;;;1.23;1.15;;;;;;;1.35;97.58;98650.63;5073445;28;20051;-70
2023/12/24 00:42:25;;;;;;;1.48;1.40;;;;;;;1.32;97.79;98650.56;5073141;28;20041;-68
2023/12/24 00:44:55;;;;;;;0.90;0.90;;;;;;;1.30;97.19;98646.31;5072297;28;20028;-69
2023/12/24 00:47:24;;;;;;;0.57;0.57;;;;;;;1.29;98.08;98648.00;5072032;28;20532;-70
2023/12/24 00:49:53;;;;;;;0.50;0.50;;;;;;;1.26;97.52;98665.53;5073333;28;20165;-68
2023/12/24 00:52:22;;;;;;;0.50;0.50;;;;;;;1.23;97.29;98655.41;5073555;28;20509;-71
2023/12/24 00:54:51;;;;;;;1.70;1.60;;;;;;;1.20;97.32;98662.88;5058200;28;20044;-71
2023/12/24 00:57:20;;;;;;;4.60;2.35;;;;;;;1.14;98.20;98647.72;5076819;28;20041;-70
2023/12/24 00:59:49;;;;;;;1.27;1.17;;;;;;;1.18;97.50;98657.00;5076657;28;20051;-69
2023/12/24 01:02:20;;;;;;;0.40;0.40;;;;;;;1.14;98.18;98665.28;5075196;28;20399;-69
2023/12/24 01:04:49;;;;;;;0.63;0.63;;;;;;;1.14;97.70;98657.75;5076651;28;20505;-71
2023/12/24 01:07:18;;;;;;;1.48;1.38;;;;;;;1.10;98.11;98667.72;5075794;28;20463;-69
2023/12/24 01:09:47;;;;;;;0.50;0.50;;;;;;;1.07;97.50;98663.47;5076500;28;20052;-70
2023/12/24 01:12:17;;;;;;;0.30;0.30;;;;;;;1.08;97.78;98665.16;5075266;28;20040;-70
2023/12/24 01:14:46;;;;;;;0.40;0.40;;;;;;;1.09;97.76;98666.84;5076840;28;20064;-70
2023/12/24 01:17:15;;;;;;;0.60;0.60;;;;;;;1.00;97.95;98656.63;5076462;28;20043;-70
2023/12/24 01:19:46;;;;;;;0.43;0.43;;;;;;;1.09;97.59;98671.03;5076333;28;20504;-69
2023/12/24 01:22:15;;;;;;;0.50;0.50;;;;;;;1.08;98.40;98674.38;5092051;28;20044;-70
2023/12/24 01:24:44;;;;;;;0.40;0.40;;;;;;;1.05;98.46;98675.16;5075389;28;20115;-70
2023/12/24 01:27:14;;;;;;;0.50;0.50;;;;;;;1.04;98.09;98670.94;5076511;28;20054;-70
2023/12/24 01:29:43;;;;;;;0.50;0.50;;;;;;;1.06;97.66;98661.78;5076360;28;20094;-70
2023/12/24 01:32:12;;;;;;;0.50;0.50;;;;;;;1.08;98.37;98664.34;5076400;28;20047;-71
2023/12/24 01:34:41;;;;;;;0.57;0.57;;;;;;;1.11;97.73;98665.22;5076376;28;20140;-70
2023/12/24 01:37:11;;;;;;;0.85;0.85;;;;;;;1.10;98.69;98665.19;5076322;28;20090;-71
2023/12/24 01:39:40;;;;;;;0.43;0.43;;;;;;;1.06;98.88;98656.75;5075845;28;20060;-71
2023/12/24 01:42:09;;;;;;;0.60;0.60;;;;;;;1.11;98.79;98675.28;5074890;28;20036;-70
2023/12/24 01:44:38;;;;;;;0.90;0.88;;;;;;;1.11;98.82;98675.28;5075924;28;20579;-70
2023/12/24 01:47:08;;;;;;;0.95;0.95;;;;;;;1.13;98.08;98678.66;5074674;28;20525;-71
2023/12/24 01:49:37;;;;;;;1.08;0.98;;;;;;;0.99;97.90;98664.97;5075102;28;20037;-71
2023/12/24 01:52:06;;;;;;;0.70;0.70;;;;;;;1.10;98.06;98693.69;5074663;28;20032;-70
2023/12/24 01:54:37;;;;;;;0.50;0.50;;;;;;;1.13;98.59;98688.72;5075990;28;20106;-70
2023/12/24 01:57:07;;;;;;;0.50;0.50;;;;;;;1.14;98.11;98694.59;5075993;28;20139;-70
2023/12/24 01:59:36;;;;;;;0.60;0.60;;;;;;;0.71;98.88;98621.69;5074385;28;20044;-70
2023/12/24 02:02:05;;;;;;;0.52;0.52;;;;;;;1.11;98.23;98690.34;5074182;28;20071;-70
2023/12/24 02:04:35;;;;;;;0.70;0.70;;;;;;;1.11;98.37;98690.34;5058064;28;20041;-70
2023/12/24 02:07:07;;;;;;;0.65;0.57;;;;;;;1.13;98.63;98688.72;5076367;28;20048;-70
2023/12/24 02:09:37;;;;;;;0.88;0.80;;;;;;;1.11;98.56;98684.47;5075729;28;20080;-70
2023/12/24 02:12:06;;;;;;;0.32;0.32;;;;;;;1.08;98.87;98700.31;5074313;28;20045;-70
2023/12/24 02:14:35;;;;;;;0.60;0.60;;;;;;;1.11;98.40;98697.88;5074422;28;20417;-70
2023/12/24 02:17:06;;;;;;;0.88;0.88;;;;;;;1.07;98.38;98696.13;5074052;28;20044;-70
2023/12/24 02:19:35;;;;;;;0.70;0.70;;;;;;;1.06;98.64;98696.09;5074383;28;20045;-70
2023/12/24 02:22:05;;;;;;;1.00;1.00;;;;;;;1.02;98.25;98690.16;5074152;28;20048;-71
2023/12/24 02:24:34;;;;;;;0.57;0.57;;;;;;;1.01;99.03;98688.44;5074037;28;20517;-70
2023/12/24 02:27:11;;;;;;;0.40;0.40;;;;;;;1.02;98.33;98689.31;5074186;28;20052;-70
2023/12/24 02:29:44;;;;;;;0.40;0.40;;;;;;;1.01;98.78;98693.47;5074178;28;20044;-70
2023/12/24 02:32:15;;;;;;;0.40;0.40;;;;;;;1.01;99.16;98688.44;5075225;28;20058;-71
2023/12/24 02:34:47;;;;;;;0.70;0.70;;;;;;;0.99;98.54;98685.06;5074944;28;20052;-71
2023/12/24 02:37:18;;;;;;;0.40;0.40;;;;;;;0.98;98.86;98688.41;5075207;28;20049;-71
2023/12/24 02:39:47;;;;;;;0.50;0.50;;;;;;;0.98;99.24;98688.41;5073994;28;20070;-71
2023/12/24 02:42:16;;;;;;;0.70;0.70;;;;;;;0.95;99.34;98683.31;5074882;28;20064;-71
2023/12/24 02:44:45;;;;;;;0.30;0.30;;;;;;;1.00;99.38;98686.78;5057337;28;20356;-71
2023/12/24 02:47:14;;;;;;;1.45;0.90;;;;;;;0.99;99.02;98685.06;5073859;28;20044;-71
2023/12/24 02:49:43;;;;;;;0.60;0.60;;;;;;;0.99;98.78;98690.09;5090547;28;20029;-71
2023/12/24 02:52:11;;;;;;;0.83;0.83;;;;;;;1.03;99.54;98691.84;5074780;28;20044;-71
2023/12/24 02:54:41;;;;;;;1.05;1.05;;;;;;;1.05;99.13;98690.22;5074787;28;20346;-71
2023/12/24 02:57:09;;;;;;;0.40;0.40;;;;;;;1.03;98.75;98691.00;5073672;28;20041;-71
2023/12/24 02:59:39;;;;;;;1.85;0.70;;;;;;;1.04;99.81;98696.06;5073548;28;20483;-72
2023/12/24 03:02:07;;;;;;;1.15;1.05;;;;;;;0.87;99.08;98669.75;5056171;28;20045;-71
2023/12/24 03:04:36;;;;;;;0.22;0.22;;;;;;;1.00;99.43;98699.34;5073425;28;20033;-71
2023/12/24 03:07:05;;;;;;;0.40;0.40;;;;;;;1.00;99.09;98686.78;5074607;28;20051;-71
2023/12/24 03:09:34;;;;;;;0.73;0.73;;;;;;;1.01;99.46;98690.97;5074358;28;20046;-71
2023/12/24 03:12:06;;;;;;;1.30;1.23;;;;;;;0.99;98.97;98690.09;5074431;28;20036;-71
2023/12/24 03:14:35;;;;;;;0.77;0.77;;;;;;;1.00;99.86;98681.75;5074156;28;20051;-72
2023/12/24 03:17:04;;;;;;;0.50;0.50;;;;;;;0.96;98.93;98705.09;5073144;28;20040;-72
2023/12/24 03:19:33;;;;;;;0.50;0.50;;;;;;;0.97;100.00;98689.22;5072826;28;20277;-72
2023/12/24 03:22:02;;;;;;;0.70;0.70;;;;;;;0.97;99.64;98686.69;5074311;28;20045;-72
2023/12/24 03:24:32;;;;;;;1.40;1.30;;;;;;;0.99;100.00;98685.06;5073850;28;20039;-73
2023/12/24 03:27:01;;;;;;;0.60;0.60;;;;;;;0.97;99.53;98686.69;5073307;28;20036;-72
2023/12/24 03:29:32;;;;;;;0.70;0.70;;;;;;;0.99;99.25;98709.31;5072976;28;20063;-73
2023/12/24 03:32:01;;;;;;;1.23;1.17;;;;;;;0.99;99.38;98670.00;5073009;28;20131;-74
2023/12/24 03:34:31;;;;;;;0.80;0.80;;;;;;;0.99;100.00;98690.09;5039909;28;20072;-74
2023/12/24 03:37:00;;;;;;;0.60;0.60;;;;;;;1.02;100.00;98705.22;5089761;28;20044;-74
2023/12/24 03:39:29;;;;;;;0.40;0.40;;;;;;;0.98;100.00;98698.47;5072450;28;20403;-75
2023/12/24 03:41:58;;;;;;;0.55;0.55;;;;;;;1.01;100.00;98688.44;5073778;28;20048;-75
2023/12/24 03:44:27;;;;;;;0.65;0.65;;;;;;;1.03;99.68;98686.81;5039269;28;20047;-76
2023/12/24 03:46:57;;;;;;;0.50;0.50;;;;;;;1.00;99.93;98701.84;5056219;28;20052;-76
2023/12/24 03:49:26;;;;;;;0.95;0.95;;;;;;;1.00;100.00;98690.94;5072793;28;20844;-76
2023/12/24 03:51:55;;;;;;;1.02;1.02;;;;;;;0.97;99.73;98681.69;5073894;28;20040;-75
2023/12/24 03:54:24;;;;;;;1.45;1.35;;;;;;;0.97;99.77;98693.38;5072621;28;20036;-74
2023/12/24 03:56:53;;;;;;;0.40;0.40;;;;;;;0.99;99.92;98695.13;5074112;28;20044;-74
2023/12/24 03:59:22;;;;;;;0.50;0.50;;;;;;;1.01;100.00;98688.44;5055586;28;20368;-74
2023/12/24 04:01:51;;;;;;;1.38;1.27;;;;;;;1.01;99.74;98693.47;5073397;28;20452;-71
2023/12/24 04:04:23;;;;;;;1.50;1.40;;;;;;;0.95;100.00;98683.31;5073469;28;20093;-72
2023/12/24 04:06:52;;;;;;;0.70;0.70;;;;;;;1.02;100.00;98700.22;5074080;28;20054;-73
2023/12/24 04:09:21;;;;;;;0.47;0.47;;;;;;;1.04;100.00;98707.75;5073119;28;20497;-70
2023/12/24 04:11:50;;;;;;;0.63;0.63;;;;;;;1.06;100.00;98691.91;5072558;28;20058;-71
2023/12/24 04:14:19;;;;;;;1.13;1.10;;;;;;;1.08;100.00;98697.81;5073659;28;20044;-72
2023/12/24 04:16:48;;;;;;;0.77;0.77;;;;;;;1.10;100.00;98693.69;5073685;28;20048;-70
2023/12/24 04:19:17;;;;;;;0.40;0.40;;;;;;;1.07;100.00;98688.59;5072367;28;20521;-75
2023/12/24 04:21:47;;;;;;;2.55;1.05;;;;;;;1.11;100.00;98692.84;5073884;28;20041;-76
2023/12/24 04:24:16;;;;;;;1.05;1.05;;;;;;;1.08;100.00;98690.28;5055477;28;20437;-78
2023/12/24 04:26:45;;;;;;;0.55;0.55;;;;;;;1.16;100.00;98688.78;5071904;28;20037;-79
2023/12/24 04:29:14;;;;;;;0.40;0.40;;;;;;;1.12;100.00;98691.19;5075633;28;20127;-79
2023/12/24 04:31:43;;;;;;;0.52;0.52;;;;;;;0.83;100.00;98635.34;5059535;28;20082;-79
2023/12/24 04:34:12;;;;;;;0.32;0.32;;;;;;;1.14;100.00;98680.38;5076038;28;20048;-79
2023/12/24 04:36:43;;;;;;;0.57;0.57;;;;;;;1.22;100.00;98686.38;5077464;28;20048;-78
2023/12/24 04:39:15;;;;;;;0.45;0.45;;;;;;;1.25;100.00;98688.09;5077426;28;20089;-78
2023/12/24 04:41:44;;;;;;;0.80;0.80;;;;;;;1.27;100.00;98691.50;5076149;28;20040;-79
2023/12/24 04:44:13;;;;;;;0.32;0.32;;;;;;;1.30;100.00;98684.88;5077093;28;20040;-78
2023/12/24 04:46:43;;;;;;;0.40;0.40;;;;;;;1.22;100.00;98663.75;5075952;28;20052;-77
2023/12/24 04:49:12;;;;;;;1.58;0.77;;;;;;;1.39;100.00;98685.88;5093007;28;20037;-78
2023/12/24 04:51:42;;;;;;;0.60;0.60;;;;;;;1.35;100.00;98683.28;5076283;28;20520;-77
2023/12/24 04:54:10;;;;;;;;;;;;;;;1.40;100.00;98685.03;5059785;28;20499;-77
2023/12/24 04:56:42;;;;;;;0.70;0.70;;;;;;;1.39;100.00;98676.69;5076684;28;19920;-77
2023/12/24 04:59:11;;;;;;;0.55;0.55;;;;;;;1.37;100.00;98675.78;5059143;28;20552;-77
2023/12/24 05:01:40;;;;;;;0.32;0.32;;;;;;;1.38;100.00;98674.13;5075543;28;20490;-78
2023/12/24 05:04:09;;;;;;;0.30;0.30;;;;;;;1.37;100.00;98695.06;5075490;28;20040;-77
2023/12/24 05:06:38;;;;;;;2.35;1.90;;;;;;;1.39;100.00;98695.94;5075575;28;20054;-78
2023/12/24 05:09:10;;;;;;;1.00;0.95;;;;;;;1.35;100.00;98678.25;5075685;28;20110;-79
2023/12/24 05:11:41;;;;;;;1.38;1.15;;;;;;;1.33;100.00;98700.00;5092294;28;20044;-80
2023/12/24 05:14:09;;;;;;;0.30;0.30;;;;;;;1.37;100.00;98710.13;5061108;28;20041;-81
2023/12/24 05:16:38;;;;;;;0.80;0.80;;;;;;;1.33;100.00;98697.50;5079747;28;20040;-80
2023/12/24 05:19:07;;;;;;;0.52;0.52;;;;;;;1.30;100.00;98697.44;5090352;28;20301;-80
2023/12/24 05:21:36;;;;;;;0.63;0.63;;;;;;;1.37;100.00;98707.63;5096681;28;20040;-81
2023/12/24 05:24:06;;;;;;;1.15;1.05;;;;;;;1.19;100.00;98676.28;5052786;28;20086;-80
2023/12/24 05:26:37;;;;;;;0.40;0.40;;;;;;;1.41;100.00;98704.34;5083690;28;20051;-81
2023/12/24 05:29:08;;;;;;;0.80;0.80;;;;;;;1.37;100.00;98705.09;5095307;28;20040;-80
2023/12/24 05:31:39;;;;;;;0.70;0.70;;;;;;;1.39;100.00;98696.78;5095720;28;20045;-80
2023/12/24 05:34:09;;;;;;;0.50;0.50;;;;;;;1.40;100.00;98712.69;5083486;28;20064;-80
2023/12/24 05:36:39;;;;;;;1.48;1.33;;;;;;;1.40;100.00;98708.50;5084095;28;20052;-80
2023/12/24 05:39:11;;;;;;;2.40;0.90;;;;;;;1.43;100.00;98711.09;5079203;28;20078;-79
2023/12/24 05:41:40;;;;;;;0.43;0.43;;;;;;;1.44;100.00;98710.25;5082785;28;20044;-79
2023/12/24 05:44:11;;;;;;;0.85;0.77;;;;;;;1.45;100.00;98716.13;5077986;28;20036;-80
2023/12/24 05:46:40;;;;;;;2.63;1.95;;;;;;;1.44;100.00;98709.44;5078003;28;20048;-79
2023/12/24 05:49:08;;;;;;;0.60;0.60;;;;;;;1.45;100.00;98696.88;5076110;28;20043;-79
2023/12/24 05:51:37;;;;;;;1.73;1.52;;;;;;;1.43;100.00;98700.19;5077643;28;20703;-80
2023/12/24 05:54:06;;;;;;;0.60;0.60;;;;;;;1.50;100.00;98709.53;5077197;28;20044;-80
2023/12/24 05:56:36;;;;;;;1.27;1.25;;;;;;;1.58;100.00;98710.53;5075707;28;20782;-78
2023/12/24 05:59:05;;;;;;;1.80;1.55;;;;;;;1.49;100.00;98682.72;5075858;28;20040;-78
2023/12/24 06:01:35;;;;;;;0.28;0.28;;;;;;;1.72;100.00;98714.16;5075599;28;20049;-77
2023/12/24 06:04:04;;;;;;;0.40;0.40;;;;;;;1.68;100.00;98700.66;5091320;28;20041;-76
2023/12/24 06:06:33;;;;;;;;;;;;;;;1.75;100.00;98706.69;5075328;28;20036;-77
2023/12/24 06:09:03;;;;;;;0.57;0.57;;;;;;;1.76;100.00;98718.41;5075423;28;19924;-78
2023/12/24 06:11:32;;;;;;;0.60;0.60;;;;;;;1.62;100.00;98700.56;5057962;28;20072;-79
2023/12/24 06:14:01;;;;;;;0.80;0.80;;;;;;;1.89;100.00;98720.34;5074397;28;20040;-80
2023/12/24 06:16:30;;;;;;;0.53;0.53;;;;;;;2.12;100.00;98719.06;5075812;28;20376;-79
2023/12/24 06:19:01;;;;;;;0.82;0.82;;;;;;;2.12;100.00;98734.16;5075152;28;20055;-79
2023/12/24 06:21:30;;;;;;;0.40;0.40;;;;;;;1.97;100.00;98694.50;5075477;28;20051;-77
2023/12/24 06:23:59;;;;;;;0.50;0.50;;;;;;;1.99;100.00;98723.03;5075380;28;20380;-76
2023/12/24 06:26:28;;;;;;;0.47;0.47;;;;;;;2.02;100.00;98743.22;5075278;28;20323;-75
2023/12/24 06:28:57;;;;;;;0.30;0.30;;;;;;;2.00;100.00;98738.97;5075077;28;20134;-75
2023/12/24 06:31:26;;;;;;;0.40;0.40;;;;;;;1.97;100.00;98744.81;5075284;28;20052;-71
2023/12/24 06:33:55;;;;;;;0.57;0.57;;;;;;;1.92;100.00;98740.53;5074826;28;20136;-71
2023/12/24 06:36:25;;;;;;;0.33;0.33;;;;;;;1.98;100.00;98733.06;5075190;28;20041;-71
2023/12/24 06:38:54;;;;;;;0.32;0.32;;;;;;;2.01;100.00;98740.69;5074805;28;20312;-72
2023/12/24 06:41:23;;;;;;;2.58;1.88;;;;;;;2.07;100.00;98735.75;5074878;28;20517;-72
2023/12/24 06:43:52;;;;;;;0.30;0.30;;;;;;;2.12;100.00;98758.47;5074993;28;20041;-73
2023/12/24 06:46:21;;;;;;;0.40;0.40;;;;;;;2.20;100.00;98737.66;5057023;28;20036;-71
2023/12/24 06:48:50;;;;;;;1.13;1.13;;;;;;;2.24;100.00;98739.41;5074849;28;20037;-72
2023/12/24 06:51:19;;;;;;;1.95;1.85;;;;;;;2.28;100.00;98751.19;5072360;28;20045;-73
2023/12/24 06:53:49;;;;;;;1.23;1.13;;;;;;;2.33;100.00;98746.25;5074534;28;20043;-73
2023/12/24 06:56:18;;;;;;;0.50;0.50;;;;;;;2.38;100.00;98743.00;5074640;28;20067;-73
2023/12/24 06:58:46;;;;;;;0.50;0.50;;;;;;;2.49;100.00;98751.59;5074356;28;20052;-73
2023/12/24 07:01:15;;;;;;;1.03;0.87;;;;;;;2.49;100.00;98751.59;5074224;28;20285;-72
2023/12/24 07:03:44;;;;;;;2.67;1.43;;;;;;;2.50;100.00;98758.28;5074683;28;20115;-71
2023/12/24 07:06:13;;;;;;;0.45;0.45;;;;;;;2.49;100.00;98756.63;5074215;28;20132;-73
2023/12/24 07:08:42;;;;;;;6.90;1.67;;;;;;;2.49;100.00;98756.63;5074828;28;20040;-72
2023/12/24 07:11:13;;;;;;;0.77;0.77;;;;;;;2.52;100.00;98750.78;5074197;28;20048;-72
2023/12/24 07:13:41;;;;;;;2.22;1.42;;;;;;;2.51;100.00;98754.97;5074368;28;20048;-72
2023/12/24 07:16:10;;;;;;;0.70;0.70;;;;;;;2.52;100.00;98759.16;5074399;28;20411;-74
2023/12/24 07:18:39;;;;;;;0.50;0.50;;;;;;;2.55;100.00;98746.63;5074011;28;20051;-75
2023/12/24 07:21:08;;;;;;;0.50;0.50;;;;;;;2.65;100.00;98758.53;5072853;28;20033;-76
2023/12/24 07:23:37;;;;;;;0.82;0.80;;;;;;;2.67;100.00;98756.88;5074259;28;20041;-71
2023/12/24 07:26:07;;;;;;;1.15;1.10;;;;;;;2.76;100.00;98765.44;5073909;28;20040;-72
2023/12/24 07:28:37;;;;;;;0.90;0.90;;;;;;;2.79;100.00;98765.44;5073953;28;20132;-72
2023/12/24 07:31:06;;;;;;;0.52;0.52;;;;;;;2.76;100.00;98761.22;5074161;28;20037;-73
2023/12/24 07:33:35;;;;;;;0.70;0.70;;;;;;;2.76;100.00;98755.34;5073847;28;20052;-72
2023/12/24 07:36:04;;;;;;;1.75;1.65;;;;;;;2.76;100.00;98767.94;5089490;28;20046;-73
2023/12/24 07:38:34;;;;;;;1.10;1.08;;;;;;;2.80;100.00;98747.00;5073290;28;20035;-74
2023/12/24 07:41:04;;;;;;;1.80;1.23;;;;;;;2.81;100.00;98738.63;5074083;28;20050;-72
2023/12/24 07:43:33;;;;;;;0.47;0.47;;;;;;;2.97;100.00;98755.66;5073655;28;20079;-71
2023/12/24 07:46:04;;;;;;;0.95;0.85;;;;;;;3.09;100.00;98756.69;5072717;28;20048;-72
2023/12/24 07:48:33;;;;;;;0.45;0.45;;;;;;;3.10;100.00;98762.53;5093875;28;20391;-72
2023/12/24 07:51:02;;;;;;;0.40;0.40;;;;;;;3.04;100.00;98762.47;5093814;28;20048;-72
2023/12/24 07:53:31;;;;;;;0.63;0.63;;;;;;;3.03;100.00;98766.66;5094098;28;20093;-73
2023/12/24 07:56:01;;;;;;;0.70;0.70;;;;;;;2.99;100.00;98769.13;5092543;28;20398;-72
2023/12/24 07:58:29;;;;;;;0.52;0.52;;;;;;;2.97;100.00;98770.78;5093942;28;20036;-73
2023/12/24 08:00:58;;;;;;;0.40;0.40;;;;;;;2.92;100.00;98760.63;5093731;28;20113;-73
2023/12/24 08:03:28;;;;;;;0.40;0.40;;;;;;;2.91;100.00;98768.16;5093301;28;20067;-72
2023/12/24 08:05:57;;;;;;;3.25;0.75;;;;;;;2.91;100.00;98775.72;5093907;28;20032;-73
2023/12/24 08:08:26;;;;;;;0.30;0.30;;;;;;;2.90;100.00;98784.97;5093730;28;20552;-75
2023/12/24 08:10:55;;;;;;;1.00;1.00;;;;;;;2.91;100.00;98781.59;5093876;28;20498;-74
2023/12/24 08:13:31;;;;;;;0.50;0.50;;;;;;;2.92;100.00;98782.47;5092686;28;20056;-73
2023/12/24 08:16:00;;;;;;;0.98;0.98;;;;;;;2.95;100.00;98787.56;5093823;28;20044;-73
2023/12/24 08:18:31;;;;;;;1.00;1.00;;;;;;;2.96;100.00;98790.09;5093845;28;20510;-72
2023/12/24 08:21:00;;;;;;;0.68;0.68;;;;;;;2.94;100.00;98786.69;5093833;28;20135;-72
2023/12/24 08:23:28;;;;;;;0.40;0.40;;;;;;;2.92;100.00;98795.91;5093763;28;20040;-72
2023/12/24 08:25:57;;;;;;;0.70;0.70;;;;;;;2.82;100.00;98770.53;5093560;28;20319;-72
2023/12/24 08:28:26;;;;;;;1.50;1.40;;;;;;;2.96;100.00;98794.28;5093434;28;20497;-71
2023/12/24 08:30:55;;;;;;;1.13;1.03;;;;;;;2.99;100.00;98790.13;5093455;28;20311;-72
2023/12/24 08:33:24;;;;;;;0.40;0.40;;;;;;;3.02;100.00;98800.25;5093658;28;20036;-72
2023/12/24 08:35:54;;;;;;;0.60;0.60;;;;;;;2.99;100.00;98805.25;5093500;28;20036;-72
2023/12/24 08:38:24;;;;;;;1.42;0.98;;;;;;;2.95;100.00;98827.88;5093238;28;20043;-71
2023/12/24 08:40:52;;;;;;;0.77;0.77;;;;;;;2.93;100.00;98817.75;5093718;28;20072;-71
2023/12/24 08:43:21;;;;;;;0.70;0.70;;;;;;;2.95;100.00;98827.88;5093617;28;20036;-71
2023/12/24 08:45:50;;;;;;;0.60;0.60;;;;;;;2.99;100.00;98835.50;5093547;28;20048;-71
2023/12/24 08:48:19;;;;;;;1.27;1.17;;;;;;;3.00;100.00;98826.28;5092271;28;20052;-71
2023/12/24 08:50:48;;;;;;;0.52;0.52;;;;;;;3.01;100.00;98830.47;5093559;28;20052;-70
2023/12/24 08:53:19;;;;;;;2.33;1.77;;;;;;;3.03;100.00;98837.22;5093471;28;20135;-71
2023/12/24 08:55:47;;;;;;;0.85;0.85;;;;;;;3.07;100.00;98828.06;5093156;28;20359;-71
2023/12/24 08:58:17;;;;;;;0.70;0.70;;;;;;;3.09;100.00;98826.41;5093502;28;20063;-70
2023/12/24 09:00:45;;;;;;;3.08;2.40;;;;;;;3.05;100.00;98819.59;5093084;28;20127;-71
2023/12/24 09:03:18;;;;;;;0.68;0.68;;;;;;;3.10;100.00;98828.94;5093427;28;20044;-71
2023/12/24 09:05:47;;;;;;;1.25;0.85;;;;;;;3.18;100.00;98841.66;5093278;28;20532;-72
2023/12/24 09:08:15;;;;;;;1.98;1.88;;;;;;;3.20;100.00;98843.38;5093505;28;20032;-72
2023/12/24 09:10:46;;;;;;;1.30;1.25;;;;;;;3.27;100.00;98841.78;5093236;28;20492;-73
2023/12/24 09:13:14;;;;;;;0.88;0.85;;;;;;;3.31;100.00;98841.03;5093004;28;20056;-72
2023/12/24 09:15:43;;;;;;;3.70;3.33;;;;;;;3.37;100.00;98843.63;5095581;28;20036;-71
2023/12/24 09:18:12;;;;;;;2.22;1.63;;;;;;;3.38;100.00;98840.28;5078687;28;20292;-71
2023/12/24 09:20:41;;;;;;;1.65;1.55;;;;;;;3.40;100.00;98843.66;5096923;28;20076;-72
2023/12/24 09:23:10;;;;;;;1.30;1.20;;;;;;;3.49;100.00;98833.69;5096567;28;20494;-72
2023/12/24 09:25:39;;;;;;;0.50;0.45;;;;;;;3.63;100.00;98837.25;5096702;28;20059;-73
2023/12/24 09:28:09;;;;;;;1.02;1.02;;;;;;;3.69;100.00;98842.38;5096437;28;20052;-72
2023/12/24 09:30:37;;;;;;;4.00;1.55;;;;;;;3.65;100.00;98833.06;5096326;28;20044;-73
2023/12/24 09:33:06;;;;;;;0.60;0.60;;;;;;;3.62;100.00;98828.00;5082655;28;20114;-72
2023/12/24 09:35:36;;;;;;;1.00;1.00;;;;;;;3.61;100.00;98838.91;5076316;28;20069;-72
2023/12/24 09:38:05;;;;;;;1.02;0.93;;;;;;;3.52;100.00;98837.94;5076115;28;20119;-73
2023/12/24 09:40:34;;;;;;;0.77;0.77;;;;;;;3.49;100.00;98838.75;5076006;28;20123;-71
2023/12/24 09:43:03;;;;;;;2.15;1.95;;;;;;;3.46;100.00;98848.78;5074990;28;20323;-72
2023/12/24 09:45:34;;;;;;;;;;;;;;;3.43;100.00;98845.38;5075107;28;20094;-72
2023/12/24 09:48:04;;;;;;;1.95;1.85;;;;;;;3.43;100.00;98858.84;5058122;28;19928;-72
2023/12/24 09:50:33;;;;;;;2.45;2.25;;;;;;;3.43;100.00;98853.81;5074981;28;20147;-73
2023/12/24 09:53:04;;;;;;;6.77;2.17;;;;;;;3.43;100.00;98848.75;5076036;28;20068;-72
2023/12/24 09:55:33;;;;;;;3.28;3.05;;;;;;;3.45;100.00;98847.09;5075831;28;20585;-73
2023/12/24 09:58:02;;;;;;;2.57;1.87;;;;;;;3.46;100.00;98852.97;5075607;28;20055;-72
2023/12/24 10:00:30;;;;;;;1.17;1.07;;;;;;;3.47;100.00;98850.50;5075507;28;20435;-71
2023/12/24 10:03:01;;;;;;;0.90;0.90;;;;;;;3.50;100.00;98860.63;5075514;28;20052;-73
2023/12/24 10:05:29;;;;;;;2.65;1.92;;;;;;;3.51;100.00;98854.75;5075474;28;20045;-72
2023/12/24 10:07:59;;;;;;;0.60;0.60;;;;;;;3.54;100.00;98859.81;5057629;28;20117;-71
2023/12/24 10:10:31;;;;;;;0.75;0.75;;;;;;;3.54;100.00;98859.81;5074513;28;20273;-73
2023/12/24 10:13:09;;;;;;;0.50;0.50;;;;;;;3.55;100.00;98858.16;5075083;28;20052;-73
2023/12/24 10:15:39;;;;;;;1.73;1.63;;;;;;;3.56;100.00;98855.66;5075504;28;20040;-72
2023/12/24 10:18:20;;;;;;;1.48;1.38;;;;;;;3.55;100.00;98848.91;5075512;28;20284;-72
2023/12/24 10:20:50;;;;;;;1.58;1.48;;;;;;;3.55;100.00;98848.06;5076119;28;20449;-71
2023/12/24 10:23:20;;;;;;;3.38;2.28;;;;;;;3.52;100.00;98848.88;5075061;28;20052;-71
2023/12/24 10:26:02;;;;;;;2.95;2.72;;;;;;;3.54;100.00;98847.22;5075159;28;20501;-72
2023/12/24 10:28:32;;;;;;;1.63;1.52;;;;;;;3.55;100.00;98853.13;5075368;28;20049;-72
2023/12/24 10:31:08;;;;;;;2.38;2.17;;;;;;;3.57;100.00;98844.75;5075418;28;20494;-72
2023/12/24 10:33:40;;;;;;;1.85;1.67;;;;;;;3.59;100.00;98834.66;5075079;28;20052;-73
2023/12/24 10:36:10;;;;;;;0.60;0.60;;;;;;;3.55;100.00;98826.19;5073946;28;20097;-73
2023/12/24 10:38:39;;;;;;;5.70;1.95;;;;;;;3.58;100.00;98823.72;5075448;28;20057;-73
2023/12/24 10:41:08;;;;;;;2.30;1.88;;;;;;;3.54;100.00;98822.00;5075197;28;20037;-72
2023/12/24 10:43:36;;;;;;;3.17;1.13;;;;;;;3.54;100.00;98827.03;5074992;28;20063;-71
2023/12/24 10:46:05;;;;;;;1.63;1.43;;;;;;;3.58;99.99;98823.72;5095169;28;20354;-72
2023/12/24 10:48:34;;;;;;;0.93;0.93;;;;;;;3.63;100.00;98817.06;5092401;28;20071;-72
2023/12/24 10:51:04;;;;;;;0.60;0.60;;;;;;;3.67;99.87;98816.25;5093732;28;20055;-71
2023/12/24 10:53:39;;;;;;;0.65;0.65;;;;;;;3.62;99.90;98809.50;5093555;28;20072;-71
2023/12/24 10:56:14;;;;;;;0.50;0.50;;;;;;;3.62;100.00;98810.34;5092271;28;20056;-72
2023/12/24 10:58:52;;;;;;;0.50;0.50;;;;;;;3.62;99.73;98810.34;5091970;28;20066;-72
2023/12/24 11:01:21;;;;;;;0.65;0.63;;;;;;;3.63;100.00;98811.16;5091090;28;20450;-73
2023/12/24 11:03:52;;;;;;;0.47;0.47;;;;;;;3.51;99.96;98794.19;5093407;28;20047;-72
2023/12/24 11:06:50;;;;;;;0.60;0.60;;;;;;;3.59;99.61;98815.34;5094332;28;20032;-73
2023/12/24 11:09:40;;;;;;;1.27;1.00;;;;;;;3.59;99.58;98815.34;5094975;28;20102;-73
2023/12/24 11:12:30;;;;;;;0.63;0.63;;;;;;;3.58;99.27;98823.72;5085608;28;20036;-72
2023/12/24 11:14:59;;;;;;;0.70;0.70;;;;;;;3.58;99.35;98818.69;5077370;28;20135;-73
2023/12/24 11:17:49;;;;;;;1.63;1.50;;;;;;;3.61;99.46;98807.78;5086964;28;21462;-72
2023/12/24 11:20:41;;;;;;;1.45;1.35;;;;;;;3.58;99.48;98798.50;5093928;28;20047;-71
2023/12/24 11:23:16;;;;;;;0.50;0.50;;;;;;;3.57;98.93;98784.22;5080181;28;20503;-73
2023/12/24 11:25:46;;;;;;;0.40;0.40;;;;;;;3.57;98.97;98781.69;5074545;28;20052;-71
2023/12/24 11:28:36;;;;;;;0.75;0.75;;;;;;;3.17;98.88;98724.00;5087792;28;20542;-71
2023/12/24 11:31:07;;;;;;;0.57;0.57;;;;;;;3.57;98.77;98791.78;5078356;28;20731;-72
2023/12/24 11:33:48;;;;;;;1.33;1.23;;;;;;;3.60;99.12;98790.97;5083803;28;20127;-71
2023/12/24 11:36:20;;;;;;;0.90;0.90;;;;;;;3.64;99.21;98791.03;5074020;28;20040;-71
2023/12/24 11:38:54;;;;;;;1.88;1.73;;;;;;;3.67;99.03;98788.50;5075423;28;20068;-73
2023/12/24 11:41:24;;;;;;;0.73;0.73;;;;;;;3.67;98.72;98795.25;5080932;28;20093;-73
2023/12/24 11:43:57;;;;;;;1.20;1.10;;;;;;;3.66;98.76;98791.88;5086622;28;20531;-74
2023/12/24 11:46:28;;;;;;;2.38;2.17;;;;;;;3.68;98.80;98795.25;5084025;28;20486;-73
2023/12/24 11:49:02;;;;;;;1.52;1.42;;;;;;;3.69;99.06;98794.44;5092476;28;20508;-73